createdAt,value
2022-09-12T00:04:12.416Z,12.05
2022-09-12T00:09:19.735Z,12.03
2022-09-12T00:14:27.756Z,12.08
2022-09-12T00:19:34.553Z,12.12
2022-09-12T00:24:42.518Z,12.2
2022-09-12T00:29:50.406Z,12.24
2022-09-12T00:34:57.125Z,12.26
2022-09-12T00:40:04.170Z,12.32
2022-09-12T00:45:10.683Z,12.3
2022-09-12T00:50:17.819Z,12.19
2022-09-12T00:55:25.931Z,12.13
2022-09-12T01:00:33.601Z,12.15
2022-09-12T01:05:41.998Z,12.12
2022-09-12T01:10:49.683Z,12.1
2022-09-12T01:15:57.528Z,12.12
2022-09-12T01:21:05.376Z,12.22
2022-09-12T01:26:13.398Z,12.15
2022-09-12T01:31:20.535Z,12.11
2022-09-12T01:36:27.949Z,12.08
2022-09-12T01:41:37.005Z,11.99
2022-09-12T01:46:44.934Z,11.94
2022-09-12T01:51:52.921Z,11.9
2022-09-12T01:56:59.735Z,11.86
2022-09-12T02:02:08.085Z,11.8
2022-09-12T02:07:15.861Z,11.8
2022-09-12T02:12:21.976Z,11.8
2022-09-12T02:17:30.498Z,11.8
2022-09-12T02:22:38.374Z,11.71
2022-09-12T02:27:45.588Z,11.72
2022-09-12T02:32:53.838Z,11.7
2022-09-12T02:38:01.200Z,11.79
2022-09-12T02:43:08.807Z,11.82
2022-09-12T02:48:15.072Z,11.8
2022-09-12T02:53:22.344Z,11.78
2022-09-12T02:58:30.287Z,11.64
2022-09-12T03:03:38.513Z,11.49
2022-09-12T03:08:46.873Z,11.33
2022-09-12T03:13:54.174Z,11.3
2022-09-12T03:19:00.700Z,11.36
2022-09-12T03:24:09.691Z,11.44
2022-09-12T03:29:17.364Z,11.46
2022-09-12T03:34:24.319Z,11.51
2022-09-12T03:39:32.142Z,11.52
2022-09-12T03:44:39.292Z,11.48
2022-09-12T03:49:47.597Z,11.46
2022-09-12T03:54:54.977Z,11.38
2022-09-12T04:00:02.710Z,11.38
2022-09-12T04:05:11.281Z,11.32
2022-09-12T04:10:20.133Z,11.24
2022-09-12T04:15:27.856Z,11.02
2022-09-12T04:20:41.163Z,10.96
2022-09-12T04:25:47.898Z,10.84
2022-09-12T04:30:55.586Z,10.82
2022-09-12T04:36:02.783Z,10.9
2022-09-12T04:41:10.013Z,10.94
2022-09-12T04:46:17.856Z,10.99
2022-09-12T04:51:25.021Z,11.07
2022-09-12T04:56:32.215Z,11.17
2022-09-12T05:01:40.576Z,11.24
2022-09-12T05:06:47.903Z,11.3
2022-09-12T05:11:56.408Z,11.43
2022-09-12T05:17:04.289Z,11.61
2022-09-12T05:22:18.458Z,11.78
2022-09-12T05:27:25.781Z,11.85
2022-09-12T05:32:34.173Z,11.92
2022-09-12T05:37:41.340Z,12.01
2022-09-12T05:42:48.894Z,12.22
2022-09-12T05:47:56.399Z,12.63
2022-09-12T05:53:03.577Z,12.98
2022-09-12T05:58:12.038Z,13.22
2022-09-12T06:03:20.545Z,13.35
2022-09-12T06:08:27.109Z,13.69
2022-09-12T06:13:34.298Z,14.08
2022-09-12T06:18:41.164Z,14.52
2022-09-12T06:23:49.587Z,14.84
2022-09-12T06:28:56.879Z,15.3
2022-09-12T06:34:04.385Z,15.63
2022-09-12T06:39:11.578Z,15.75
2022-09-12T06:44:20.670Z,15.64
2022-09-12T06:49:29.964Z,15.75
2022-09-12T06:54:37.125Z,15.98
2022-09-12T06:59:43.613Z,16.06
2022-09-12T07:04:52.049Z,16.11
2022-09-12T07:09:59.929Z,16.42
2022-09-12T07:15:08.383Z,16.94
2022-09-12T07:20:17.452Z,17.38
2022-09-12T07:25:26.676Z,17.46
2022-09-12T07:30:34.846Z,17.62
2022-09-12T07:35:42.438Z,18.51
2022-09-12T07:40:50.313Z,19.28
2022-09-12T07:45:59.144Z,18.96
2022-09-12T07:51:07.710Z,18.7
2022-09-12T07:56:14.650Z,18.72
2022-09-12T08:01:24.010Z,19.22
2022-09-12T08:06:30.943Z,21.36
2022-09-12T08:11:39.057Z,20.88
2022-09-12T08:16:45.659Z,20.51
2022-09-12T08:21:53.297Z,21.16
2022-09-12T08:27:00.730Z,21.22
2022-09-12T08:32:07.964Z,21.32
2022-09-12T08:37:13.821Z,21.33
2022-09-12T08:42:22.049Z,21.85
2022-09-12T08:47:29.848Z,22.04
2022-09-12T08:52:37.005Z,22.42
2022-09-12T08:57:44.523Z,22.22
2022-09-12T09:02:52.092Z,22.14
2022-09-12T09:07:59.583Z,22.84
2022-09-12T09:13:07.049Z,25.08
2022-09-12T09:18:14.638Z,26.93
2022-09-12T09:23:23.455Z,29.04
2022-09-12T09:28:30.487Z,28.38
2022-09-12T09:33:36.862Z,27.15
2022-09-12T09:38:44.062Z,26.06
2022-09-12T09:43:51.903Z,26.31
2022-09-12T09:48:58.663Z,28.68
2022-09-12T09:54:05.915Z,29.7
2022-09-12T09:59:13.356Z,30.34
2022-09-12T10:04:20.804Z,28.12
2022-09-12T10:09:27.834Z,26.64
2022-09-12T10:14:37.009Z,25.86
2022-09-12T10:19:45.770Z,28.02
2022-09-12T10:24:53.351Z,30.2
2022-09-12T10:30:02.508Z,30.48
2022-09-12T10:35:09.001Z,28.02
2022-09-12T10:40:15.584Z,24.46
2022-09-12T10:45:22.140Z,23.97
2022-09-12T10:50:31.772Z,26.67
2022-09-12T10:55:40.529Z,29.56
2022-09-12T11:00:47.965Z,28.72
2022-09-12T11:05:56.956Z,28.1
2022-09-12T11:11:04.101Z,25.96
2022-09-12T11:16:12.937Z,25.39
2022-09-12T11:21:20.746Z,25.33
2022-09-12T11:26:26.796Z,27.4
2022-09-12T11:31:35.007Z,25.61
2022-09-12T11:36:43.609Z,26.82
2022-09-12T11:41:50.415Z,27.31
2022-09-12T11:46:56.892Z,25.86
2022-09-12T11:52:04.803Z,24.47
2022-09-12T11:57:11.931Z,23.56
2022-09-12T12:02:19.820Z,24.04
2022-09-12T12:07:26.940Z,24.32
2022-09-12T12:12:34.138Z,24.2
2022-09-12T12:17:40.739Z,24.33
2022-09-12T12:22:47.960Z,25.42
2022-09-12T12:27:55.710Z,25.02
2022-09-12T12:33:02.332Z,23.88
2022-09-12T12:38:09.524Z,22.98
2022-09-12T12:43:17.291Z,23.78
2022-09-12T12:48:24.557Z,24.96
2022-09-12T12:53:31.745Z,25.47
2022-09-12T12:58:42.814Z,24.85
2022-09-12T13:03:50.005Z,25.4
2022-09-12T13:08:57.817Z,25.84
2022-09-12T13:14:05.305Z,25.52
2022-09-12T13:19:12.538Z,25.7
2022-09-12T13:24:18.918Z,25.18
2022-09-12T13:29:25.337Z,25.64
2022-09-12T13:34:33.307Z,26.04
2022-09-12T13:39:41.425Z,26.32
2022-09-12T13:44:49.235Z,25.56
2022-09-12T13:49:57.335Z,25.62
2022-09-12T13:55:06.425Z,26.6
2022-09-12T14:00:14.326Z,27.29
2022-09-12T14:05:20.867Z,27.21
2022-09-12T14:10:28.743Z,27.26
2022-09-12T14:15:39.199Z,25.92
2022-09-12T14:20:45.018Z,24.12
2022-09-12T14:25:51.595Z,24.58
2022-09-12T14:30:59.250Z,25.39
2022-09-12T14:36:06.618Z,23.83
2022-09-12T14:41:13.536Z,22.79
2022-09-12T14:46:22.616Z,23.8
2022-09-12T14:51:30.946Z,24.83
2022-09-12T14:56:37.988Z,24.74
2022-09-12T15:01:44.754Z,22.94
2022-09-12T15:06:51.785Z,21.65
2022-09-12T15:12:00.229Z,20.76
2022-09-12T15:17:07.427Z,20.02
2022-09-12T15:22:21.617Z,19.67
2022-09-12T15:27:30.085Z,19.42
2022-09-12T15:32:37.763Z,19.38
2022-09-12T15:37:45.199Z,19.36
2022-09-12T15:42:53.582Z,19.21
2022-09-12T15:48:00.683Z,18.96
2022-09-12T15:53:07.456Z,18.76
2022-09-12T15:58:14.976Z,18.52
2022-09-12T16:03:22.548Z,18.26
2022-09-12T16:08:29.841Z,18.04
2022-09-12T16:13:36.940Z,17.83
2022-09-12T16:18:44.650Z,17.54
2022-09-12T16:23:52.583Z,17.32
2022-09-12T16:29:00.288Z,17.1
2022-09-12T16:34:08.138Z,16.93
2022-09-12T16:39:15.464Z,16.76
2022-09-12T16:44:23.229Z,16.44
2022-09-12T16:49:31.133Z,16.19
2022-09-12T16:54:37.995Z,15.93
2022-09-12T16:59:45.532Z,15.75
2022-09-12T17:04:52.723Z,15.67
2022-09-12T17:09:58.658Z,15.38
2022-09-12T17:15:06.092Z,15.07
2022-09-12T17:20:13.625Z,14.84
2022-09-12T17:25:20.254Z,14.46
2022-09-12T17:30:27.467Z,14.17
2022-09-12T17:35:35.769Z,13.86
2022-09-12T17:40:43.645Z,13.72
2022-09-12T17:45:51.663Z,13.62
2022-09-12T17:50:59.419Z,13.54
2022-09-12T17:56:08.606Z,13.39
2022-09-12T18:01:17.296Z,13.53
2022-09-12T18:06:24.897Z,13.63
2022-09-12T18:11:32.082Z,13.66
2022-09-12T18:16:40.862Z,13.58
2022-09-12T18:21:48.132Z,13.52
2022-09-12T18:26:56.260Z,13.38
2022-09-12T18:32:04.034Z,13.3
2022-09-12T18:37:11.263Z,13.2
2022-09-12T18:42:19.674Z,13.0
2022-09-12T18:47:26.980Z,12.84
2022-09-12T18:52:34.427Z,12.79
2022-09-12T18:57:42.586Z,12.84
2022-09-12T19:02:49.986Z,12.76
2022-09-12T19:07:57.082Z,12.48
2022-09-12T19:13:04.972Z,12.32
2022-09-12T19:18:13.835Z,12.24
2022-09-12T19:23:23.580Z,12.04
2022-09-12T19:28:31.028Z,11.96
2022-09-12T19:33:38.904Z,11.86
2022-09-12T19:38:45.442Z,11.97
2022-09-12T19:43:53.267Z,12.08
2022-09-12T19:49:00.480Z,12.04
2022-09-12T20:17:24.651Z,11.84
2022-09-12T20:22:30.019Z,11.66
2022-09-12T20:27:43.936Z,11.63
2022-09-12T20:32:50.098Z,11.65
2022-09-12T20:37:57.378Z,11.61
2022-09-12T20:43:04.771Z,11.5
2022-09-12T20:48:11.780Z,11.44
2022-09-12T20:53:19.263Z,11.38
2022-09-12T20:58:27.981Z,11.33
2022-09-12T21:03:34.714Z,11.39
2022-09-12T21:08:42.842Z,11.33
2022-09-12T21:13:56.734Z,11.25
2022-09-12T21:19:03.927Z,11.17
2022-09-12T21:24:12.461Z,11.07
2022-09-12T21:29:21.203Z,10.92
2022-09-12T21:34:29.310Z,10.83
2022-09-12T21:39:37.862Z,10.76
2022-09-12T21:44:45.783Z,10.55
2022-09-12T21:49:52.839Z,10.46
2022-09-12T21:55:00.213Z,10.47
2022-09-12T22:00:08.213Z,10.44
2022-09-12T22:05:14.831Z,10.54
2022-09-12T22:10:23.574Z,10.56
2022-09-12T22:15:31.975Z,10.74
2022-09-12T22:20:41.110Z,10.96
2022-09-12T22:25:47.768Z,11.12
2022-09-12T22:30:55.488Z,11.15
2022-09-12T22:36:03.251Z,11.06
2022-09-12T22:41:10.650Z,10.94
2022-09-12T22:46:18.235Z,10.79
2022-09-12T22:51:25.033Z,10.53
2022-09-12T22:56:32.700Z,10.46
2022-09-12T23:01:40.329Z,10.54
2022-09-12T23:06:48.100Z,10.54
2022-09-12T23:11:55.593Z,10.32
2022-09-12T23:17:04.444Z,10.21
2022-09-12T23:22:12.099Z,10.28
2022-09-12T23:27:19.899Z,10.25
2022-09-12T23:32:28.940Z,10.29
2022-09-12T23:37:37.000Z,10.44
2022-09-12T23:42:45.144Z,10.42
2022-09-12T23:47:51.761Z,10.39
2022-09-12T23:52:58.473Z,10.24
2022-09-12T23:58:06.907Z,10.15
